Time;durP1;ratioP1;P1;durP2;ratioP2;P2;SDS_P1;SDS_P2;PMS_P1;PMS_P2;Temp;Humidity;BMP_temperature;BMP_pressure;BME280_temperature;BME280_humidity;BME280_pressure;Samples;Min_cycle;Max_cycle;Signal;HPM_P1;HPM_P2
2022/08/22 00:01:21;;;;;;;20.20;7.82;;;15.20;82.50;;;;;;5068240;28;20028;-70
2022/08/22 00:03:53;;;;;;;17.80;5.47;;;15.10;82.90;;;;;;5061366;28;20145;-72
2022/08/22 00:06:38;;;;;;;11.55;5.70;;;15.20;83.40;;;;;;5068646;28;20427;-71
2022/08/22 00:09:23;;;;;;;14.10;6.85;;;15.20;83.50;;;;;;5065220;28;20028;-73
2022/08/22 00:11:58;;;;;;;17.55;6.18;;;15.20;83.50;;;;;;5065636;28;20155;-71
2022/08/22 00:14:39;;;;;;;15.90;5.78;;;15.10;82.80;;;;;;5070544;28;20076;-73
2022/08/22 00:17:35;;;;;;;18.98;8.60;;;15.20;82.40;;;;;;5064940;28;20021;-69
2022/08/22 00:20:23;;;;;;;23.70;7.57;;;15.10;82.00;;;;;;5064142;28;20099;-71
2022/08/22 00:23:08;;;;;;;20.20;8.30;;;15.10;82.50;;;;;;5067641;28;20055;-71
2022/08/22 00:26:14;;;;;;;20.95;6.95;;;15.10;82.90;;;;;;5067972;28;20035;-69
2022/08/22 00:29:00;;;;;;;19.70;7.32;;;15.00;82.70;;;;;;5067283;28;20031;-72
2022/08/22 00:31:32;;;;;;;13.70;7.55;;;15.00;82.60;;;;;;5065571;28;20029;-72
2022/08/22 00:34:04;;;;;;;23.95;9.05;;;15.10;82.50;;;;;;5068874;28;20131;-69
2022/08/22 00:36:53;;;;;;;22.92;9.43;;;15.00;82.50;;;;;;5066973;28;20024;-70
2022/08/22 00:39:39;;;;;;;16.00;8.70;;;15.10;82.50;;;;;;5069573;28;20025;-70
2022/08/22 00:42:40;;;;;;;19.20;8.60;;;15.10;82.20;;;;;;5065616;28;20029;-69
2022/08/22 00:45:23;;;;;;;19.90;8.95;;;15.10;82.00;;;;;;5067022;28;20039;-72
2022/08/22 00:47:56;;;;;;;27.10;8.73;;;15.10;81.80;;;;;;5067118;28;20091;-70
2022/08/22 00:50:48;;;;;;;18.52;8.60;;;15.10;81.70;;;;;;5067689;28;20027;-71
2022/08/22 00:53:49;;;;;;;16.40;8.60;;;15.10;81.70;;;;;;5064234;28;20040;-69
2022/08/22 00:56:52;;;;;;;26.48;10.30;;;15.10;81.80;;;;;;5067407;28;20032;-72
2022/08/22 00:59:30;;;;;;;21.40;8.27;;;15.10;81.70;;;;;;5066130;28;20145;-69
2022/08/22 01:02:21;;;;;;;16.83;7.45;;;15.00;81.90;;;;;;5066812;28;20131;-69
2022/08/22 01:05:15;;;;;;;21.83;9.30;;;15.00;81.90;;;;;;5062797;28;20028;-70
2022/08/22 01:07:57;;;;;;;21.00;7.85;;;15.10;81.90;;;;;;5064430;28;20048;-71
2022/08/22 01:10:42;;;;;;;17.02;8.50;;;15.00;81.80;;;;;;5066387;28;20023;-69
2022/08/22 01:13:09;;;;;;;25.60;10.55;;;15.00;81.80;;;;;;5065183;28;20039;-71
2022/08/22 01:15:37;;;;;;;21.52;9.93;;;15.00;81.80;;;;;;5064357;28;20047;-70
2022/08/22 01:18:36;;;;;;;23.63;8.60;;;15.00;81.80;;;;;;5067556;28;20020;-69
2022/08/22 01:21:37;;;;;;;32.33;9.18;;;15.00;82.10;;;;;;5062572;28;20040;-72
2022/08/22 01:27:56;;;;;;;16.65;9.30;;;15.00;82.70;;;;;;5005000;28;20039;-69
2022/08/22 01:30:34;;;;;;;22.67;9.02;;;15.00;82.50;;;;;;5067119;28;20028;-69
2022/08/22 01:33:07;;;;;;;20.10;9.05;;;14.90;82.40;;;;;;5064999;28;20037;-70
2022/08/22 01:36:00;;;;;;;20.73;11.00;;;14.90;82.40;;;;;;5065385;28;20024;-71
2022/08/22 01:38:48;;;;;;;20.80;8.20;;;14.90;82.40;;;;;;5065062;28;20021;-71
2022/08/22 01:41:30;;;;;;;19.45;9.90;;;14.90;82.40;;;;;;5065363;28;20043;-69
2022/08/22 01:44:13;;;;;;;16.35;7.45;;;14.90;82.30;;;;;;5063364;28;20021;-72
2022/08/22 01:47:05;;;;;;;18.33;6.88;;;14.90;82.40;;;;;;5061814;28;20017;-71
2022/08/22 01:49:39;;;;;;;14.30;6.13;;;14.90;82.30;;;;;;5066674;28;20025;-71
2022/08/22 01:52:28;;;;;;;19.65;7.03;;;14.90;82.50;;;;;;5065512;28;20024;-71
2022/08/22 01:55:07;;;;;;;15.98;6.20;;;14.90;82.50;;;;;;5062996;28;20024;-69
2022/08/22 01:57:53;;;;;;;19.02;6.70;;;14.90;82.50;;;;;;5065765;28;20452;-72
2022/08/22 02:00:21;;;;;;;19.77;6.85;;;14.90;82.40;;;;;;5062453;28;20021;-70
2022/08/22 02:03:06;;;;;;;16.38;6.85;;;14.90;82.60;;;;;;5063064;28;20419;-70
2022/08/22 02:05:45;;;;;;;17.67;6.28;;;14.90;82.70;;;;;;5062325;28;20070;-71
2022/08/22 02:08:36;;;;;;;13.57;6.22;;;14.80;82.40;;;;;;5066629;28;20048;-70
2022/08/22 02:11:05;;;;;;;12.82;5.40;;;14.80;82.30;;;;;;5064717;28;20043;-72
2022/08/22 02:13:59;;;;;;;13.90;5.65;;;14.80;82.20;;;;;;5061696;28;20093;-72
2022/08/22 02:16:37;;;;;;;10.48;5.88;;;14.70;82.20;;;;;;5061760;28;20020;-73
2022/08/22 02:19:40;;;;;;;14.35;5.72;;;14.70;82.20;;;;;;5061731;28;20025;-73
2022/08/22 02:22:52;;;;;;;18.30;6.82;;;14.70;82.30;;;;;;5049517;28;20514;-72
2022/08/22 02:25:27;;;;;;;11.13;5.22;;;14.80;82.50;;;;;;5009463;28;20035;-69
2022/08/22 02:28:15;;;;;;;19.38;6.68;;;14.80;82.40;;;;;;5064780;28;20548;-69
2022/08/22 02:31:03;;;;;;;19.77;6.05;;;14.70;82.30;;;;;;5059878;28;20106;-72
2022/08/22 02:33:45;;;;;;;16.95;7.38;;;14.70;82.20;;;;;;5062785;28;20047;-70
2022/08/22 02:36:31;;;;;;;19.08;5.38;;;14.70;82.00;;;;;;5062661;28;20027;-72
2022/08/22 02:39:21;;;;;;;13.45;5.50;;;14.70;82.20;;;;;;5062852;28;20015;-72
2022/08/22 02:42:16;;;;;;;14.10;6.18;;;14.70;82.10;;;;;;5037133;28;20040;-70
2022/08/22 02:45:08;;;;;;;24.80;8.27;;;14.70;82.30;;;;;;5038189;28;20487;-70
2022/08/22 02:47:51;;;;;;;12.73;6.93;;;14.70;82.50;;;;;;5063645;28;20265;-69
2022/08/22 02:50:24;;;;;;;22.10;6.82;;;14.60;82.50;;;;;;5064425;28;20029;-71
2022/08/22 02:53:09;;;;;;;13.02;5.93;;;14.60;82.40;;;;;;5063343;28;20032;-71
2022/08/22 02:56:19;;;;;;;12.60;5.40;;;14.60;82.30;;;;;;5065188;28;20028;-68
2022/08/22 02:59:54;;;;;;;15.70;5.28;;;14.60;82.30;;;;;;5018122;28;20490;-68
2022/08/22 03:02:41;;;;;;;27.00;5.57;;;14.60;82.00;;;;;;5047532;28;20037;-69
2022/08/22 03:05:36;;;;;;;19.40;7.60;;;14.60;81.90;;;;;;5058460;28;20484;-71
2022/08/22 03:08:18;;;;;;;30.38;7.07;;;14.60;81.90;;;;;;5064856;28;20442;-69
2022/08/22 03:11:00;;;;;;;35.53;6.45;;;14.60;81.90;;;;;;5064225;28;20017;-72
2022/08/22 03:13:45;;;;;;;14.52;5.32;;;14.60;82.30;;;;;;5062032;28;20028;-73
2022/08/22 03:16:21;;;;;;;25.92;6.47;;;14.60;82.20;;;;;;5062804;28;20020;-72
2022/08/22 03:19:03;;;;;;;18.85;6.28;;;14.60;82.30;;;;;;5066199;28;20030;-69
2022/08/22 03:21:42;;;;;;;23.80;6.63;;;14.60;82.40;;;;;;5069555;28;20118;-69
2022/08/22 03:24:22;;;;;;;33.00;11.55;;;14.50;82.30;;;;;;5067065;28;20112;-69
2022/08/22 03:27:13;;;;;;;34.78;13.13;;;14.50;82.70;;;;;;5063814;28;20020;-69
2022/08/22 03:29:46;;;;;;;35.40;9.40;;;14.60;83.30;;;;;;5070231;28;20028;-72
2022/08/22 03:32:22;;;;;;;21.20;6.20;;;14.50;83.10;;;;;;5066397;28;20464;-69
2022/08/22 03:34:55;;;;;;;18.90;6.88;;;14.50;82.70;;;;;;5065749;28;20039;-73
2022/08/22 03:37:42;;;;;;;15.85;5.03;;;14.50;82.30;;;;;;5067045;28;20089;-71
2022/08/22 03:40:51;;;;;;;19.48;6.90;;;14.50;82.30;;;;;;5067881;28;20013;-70
2022/08/22 03:43:29;;;;;;;15.60;5.75;;;14.50;82.00;;;;;;5069530;28;20035;-71
2022/08/22 03:46:32;;;;;;;21.67;5.57;;;14.40;81.60;;;;;;5068468;28;20384;-73
2022/08/22 03:49:20;;;;;;;18.38;4.30;;;14.40;81.50;;;;;;5067225;28;20027;-73
2022/08/22 03:52:08;;;;;;;15.88;4.68;;;14.40;81.50;;;;;;5065145;28;20017;-70
2022/08/22 03:54:47;;;;;;;9.15;3.67;;;14.40;81.50;;;;;;5069040;28;20534;-68
2022/08/22 03:57:56;;;;;;;20.13;5.35;;;14.40;81.40;;;;;;5068492;28;20020;-68
2022/08/22 04:00:56;;;;;;;18.40;5.07;;;14.30;81.10;;;;;;5069620;28;20029;-68
2022/08/22 04:03:55;;;;;;;11.23;4.07;;;14.30;81.20;;;;;;5067574;28;20470;-71
2022/08/22 04:06:46;;;;;;;9.48;3.40;;;14.30;81.10;;;;;;5014247;28;20030;-69
2022/08/22 04:09:51;;;;;;;7.78;3.50;;;14.30;81.10;;;;;;5070956;28;20029;-67
2022/08/22 04:12:30;;;;;;;14.18;4.70;;;14.30;81.20;;;;;;5034483;28;20028;-70
2022/08/22 04:15:18;;;;;;;17.17;6.00;;;14.30;81.30;;;;;;5068098;28;20499;-71
2022/08/22 04:17:56;;;;;;;17.60;7.82;;;14.30;81.30;;;;;;5065907;28;20025;-70
2022/08/22 04:20:44;;;;;;;12.40;6.10;;;14.20;81.20;;;;;;5069135;28;20032;-70
2022/08/22 04:23:37;;;;;;;17.40;6.30;;;14.20;81.90;;;;;;5066555;28;20024;-70
2022/08/22 04:26:12;;;;;;;8.88;3.90;;;14.20;82.20;;;;;;5067385;28;20016;-69
2022/08/22 04:28:48;;;;;;;;;;;14.20;82.40;;;;;;5065477;28;20476;-70
2022/08/22 04:31:21;;;;;;;19.27;9.88;;;14.20;82.40;;;;;;5065276;28;19912;-70
2022/08/22 04:34:06;;;;;;;19.73;12.50;;;14.20;82.50;;;;;;5067462;28;20032;-70
2022/08/22 04:36:44;;;;;;;32.80;16.52;;;14.20;82.50;;;;;;5063482;28;20074;-75
2022/08/22 04:39:22;;;;;;;21.92;10.48;;;14.20;82.80;;;;;;5065297;28;20100;-68
2022/08/22 04:42:07;;;;;;;21.63;9.30;;;14.20;82.80;;;;;;5066600;28;20063;-70
2022/08/22 04:44:42;;;;;;;20.23;7.25;;;14.20;82.50;;;;;;5065728;28;20125;-71
2022/08/22 04:47:31;;;;;;;12.57;7.25;;;14.20;82.50;;;;;;5070282;28;20020;-72
2022/08/22 04:50:35;;;;;;;21.85;5.82;;;14.20;82.60;;;;;;5061060;28;20020;-76
2022/08/22 04:53:09;;;;;;;26.08;6.65;;;14.20;83.30;;;;;;5066434;28;20471;-71
2022/08/22 04:55:50;;;;;;;14.05;5.75;;;14.10;83.50;;;;;;5065321;28;20391;-71
2022/08/22 04:58:35;;;;;;;15.50;5.68;;;14.10;83.90;;;;;;5067019;28;20035;-74
2022/08/22 05:02:14;;;;;;;39.88;8.00;;;14.20;84.30;;;;;;5063545;28;20025;-72
2022/08/22 05:04:45;;;;;;;17.98;6.72;;;14.20;84.20;;;;;;5065606;28;20039;-70
2022/08/22 05:07:22;;;;;;;19.70;7.13;;;14.20;84.70;;;;;;5066010;28;20108;-73
2022/08/22 05:09:55;;;;;;;14.38;5.70;;;14.20;84.90;;;;;;5069946;28;20147;-72
2022/08/22 05:12:36;;;;;;;19.17;6.78;;;14.20;84.90;;;;;;5066422;28;20519;-73
2022/08/22 05:15:18;;;;;;;18.73;8.77;;;14.20;84.80;;;;;;5064972;28;20070;-71
2022/08/22 05:17:48;;;;;;;17.75;7.78;;;14.20;84.80;;;;;;5062461;28;20021;-72
2022/08/22 05:20:20;;;;;;;20.42;7.57;;;14.20;84.60;;;;;;5066621;28;20074;-74
2022/08/22 05:22:52;;;;;;;16.20;6.13;;;14.20;84.60;;;;;;5066227;28;20021;-73
2022/08/22 05:25:24;;;;;;;11.30;5.85;;;14.20;84.50;;;;;;5066486;28;20495;-72
2022/08/22 05:28:00;;;;;;;14.57;5.50;;;14.20;84.50;;;;;;5066514;28;20357;-74
2022/08/22 05:30:30;;;;;;;14.00;5.03;;;14.10;84.40;;;;;;5065725;28;20041;-73
2022/08/22 05:33:12;;;;;;;23.73;6.80;;;14.20;84.50;;;;;;5063377;28;20460;-72
2022/08/22 05:35:49;;;;;;;39.05;7.43;;;14.20;84.60;;;;;;5066158;28;20489;-72
2022/08/22 05:38:19;;;;;;;16.00;6.05;;;14.20;84.90;;;;;;5065892;28;20036;-74
2022/08/22 05:40:53;;;;;;;13.75;6.13;;;14.20;85.00;;;;;;5064960;28;20080;-72
2022/08/22 05:43:22;;;;;;;22.02;7.35;;;14.20;84.90;;;;;;5067121;28;20117;-72
2022/08/22 05:45:49;;;;;;;14.32;5.55;;;14.20;84.80;;;;;;5063764;28;20031;-73
2022/08/22 05:48:29;;;;;;;22.85;4.72;;;14.20;84.80;;;;;;5063087;28;20403;-72
2022/08/22 05:51:35;;;;;;;14.70;4.20;;;14.20;85.00;;;;;;5065011;28;20060;-73
2022/08/22 05:54:16;;;;;;;9.85;3.50;;;14.20;85.10;;;;;;5062182;28;20037;-73
2022/08/22 05:56:56;;;;;;;24.17;4.80;;;14.20;85.10;;;;;;5064029;28;20025;-73
2022/08/22 05:59:32;;;;;;;11.02;3.55;;;14.30;85.20;;;;;;5065113;28;20020;-75
2022/08/22 06:02:08;;;;;;;11.48;5.03;;;14.30;85.10;;;;;;5068531;28;20025;-72
2022/08/22 06:05:12;;;;;;;20.88;6.50;;;14.30;85.20;;;;;;5064545;28;20028;-72
2022/08/22 06:07:49;;;;;;;12.20;4.05;;;14.20;85.30;;;;;;5000067;28;20063;-72
2022/08/22 06:10:56;;;;;;;14.13;4.50;;;14.30;85.80;;;;;;5003320;28;20026;-72
2022/08/22 06:13:36;;;;;;;;;;;14.30;85.80;;;;;;5043824;28;20507;-73
2022/08/22 06:16:08;;;;;;;9.95;4.65;;;14.30;85.40;;;;;;5064266;28;20390;-72
2022/08/22 06:18:39;;;;;;;9.07;4.13;;;14.30;85.50;;;;;;5064513;28;20052;-72
2022/08/22 06:21:25;;;;;;;12.07;4.68;;;14.30;85.90;;;;;;5063511;28;20060;-73
2022/08/22 06:24:01;;;;;;;7.78;3.42;;;14.30;85.60;;;;;;5066825;28;20029;-74
2022/08/22 06:26:34;;;;;;;9.82;3.53;;;14.30;85.40;;;;;;5061766;28;20013;-71
2022/08/22 06:29:02;;;;;;;6.85;3.20;;;14.30;85.30;;;;;;5066016;28;20016;-70
2022/08/22 06:31:33;;;;;;;15.43;4.80;;;14.30;85.30;;;;;;5072759;28;20035;-69
2022/08/22 06:34:22;;;;;;;6.15;2.90;;;14.30;85.30;;;;;;5062809;28;20033;-71
2022/08/22 06:36:51;;;;;;;8.95;3.58;;;14.30;85.30;;;;;;5062131;28;20024;-72
2022/08/22 06:39:26;;;;;;;18.98;4.07;;;14.30;85.30;;;;;;5066034;28;20017;-71
2022/08/22 06:42:27;;;;;;;12.83;3.67;;;14.30;85.30;;;;;;5067633;28;20044;-71
2022/08/22 06:45:00;;;;;;;9.32;4.40;;;14.30;85.30;;;;;;5068544;28;20387;-68
2022/08/22 06:47:35;;;;;;;15.38;4.57;;;14.30;85.20;;;;;;5064331;28;20024;-72
2022/08/22 06:50:10;;;;;;;13.02;4.95;;;14.30;85.20;;;;;;5064879;28;20357;-72
2022/08/22 06:52:58;;;;;;;22.50;6.05;;;14.40;85.20;;;;;;5064442;28;20073;-71
2022/08/22 06:55:27;;;;;;;14.20;5.45;;;14.40;85.20;;;;;;5065556;28;20008;-72
2022/08/22 06:58:02;;;;;;;15.90;5.40;;;14.40;85.20;;;;;;5065096;28;20477;-69
2022/08/22 07:00:32;;;;;;;27.83;8.00;;;14.40;85.30;;;;;;5070297;28;20032;-72
2022/08/22 07:03:10;;;;;;;15.75;6.60;;;14.40;85.60;;;;;;5070990;28;20021;-70
2022/08/22 07:05:41;;;;;;;10.65;5.35;;;14.50;85.90;;;;;;5072303;28;20515;-68
2022/08/22 07:08:19;;;;;;;18.83;6.03;;;14.50;86.10;;;;;;5065927;28;20062;-72
2022/08/22 07:11:06;;;;;;;21.40;6.97;;;14.50;86.40;;;;;;5066215;28;20025;-71
2022/08/22 07:13:37;;;;;;;14.40;4.20;;;14.60;86.50;;;;;;5066683;28;20510;-72
2022/08/22 07:16:07;;;;;;;23.02;5.25;;;14.60;86.80;;;;;;5068345;28;20446;-70
2022/08/22 07:19:13;;;;;;;9.63;4.90;;;14.60;87.00;;;;;;5067187;28;20154;-68
2022/08/22 07:22:20;;;;;;;18.83;7.30;;;14.70;87.40;;;;;;5065831;28;20044;-74
2022/08/22 07:24:51;;;;;;;23.83;6.47;;;14.70;87.60;;;;;;5067758;28;20375;-71
2022/08/22 07:27:42;;;;;;;19.05;6.45;;;14.80;87.80;;;;;;5070134;28;20039;-69
2022/08/22 07:30:12;;;;;;;18.25;6.13;;;14.80;87.90;;;;;;5071586;28;20024;-72
2022/08/22 07:32:48;;;;;;;17.77;5.00;;;14.90;87.90;;;;;;5066154;28;20047;-71
2022/08/22 07:35:19;;;;;;;;;;;14.90;87.90;;;;;;5070567;28;20016;-70
2022/08/22 07:38:07;;;;;;;19.77;5.85;;;14.90;88.00;;;;;;5068229;28;20003;-70
2022/08/22 07:40:59;;;;;;;17.77;7.15;;;15.00;87.80;;;;;;5070215;28;20044;-71
2022/08/22 07:43:31;;;;;;;27.85;9.73;;;15.00;87.60;;;;;;5068205;28;20420;-73
2022/08/22 07:46:07;;;;;;;13.73;5.60;;;15.00;87.50;;;;;;5075576;28;20031;-73
2022/08/22 07:48:50;;;;;;;22.17;6.50;;;15.00;87.40;;;;;;5066538;28;20024;-69
2022/08/22 07:51:23;;;;;;;20.60;6.15;;;15.00;87.40;;;;;;5068859;28;20039;-70
2022/08/22 07:54:08;;;;;;;16.70;5.18;;;15.00;87.30;;;;;;5066507;28;20033;-71
2022/08/22 07:56:41;;;;;;;22.00;4.20;;;15.00;87.30;;;;;;5068436;28;20509;-71
2022/08/22 07:59:17;;;;;;;24.45;6.10;;;15.10;87.50;;;;;;5068987;28;20107;-72
2022/08/22 08:01:52;;;;;;;18.75;6.50;;;15.10;87.50;;;;;;5059929;28;20087;-73
2022/08/22 08:04:23;;;;;;;16.48;5.95;;;15.10;87.50;;;;;;5065588;28;20047;-69
2022/08/22 08:06:53;;;;;;;18.73;5.38;;;15.20;87.40;;;;;;5069742;28;20115;-70
2022/08/22 08:09:22;;;;;;;13.98;4.22;;;15.20;87.30;;;;;;5067015;28;20020;-69
2022/08/22 08:11:52;;;;;;;11.68;3.90;;;15.30;87.10;;;;;;5064257;28;20031;-70
2022/08/22 08:14:21;;;;;;;7.65;3.25;;;15.30;87.00;;;;;;5065288;28;20029;-69
2022/08/22 08:17:00;;;;;;;19.23;5.13;;;15.30;86.70;;;;;;5067630;28;20103;-68
2022/08/22 08:19:33;;;;;;;13.82;3.78;;;15.30;86.50;;;;;;5065217;28;20067;-69
2022/08/22 08:22:00;;;;;;;11.85;3.90;;;15.40;86.30;;;;;;5067001;28;20577;-70
2022/08/22 08:24:35;;;;;;;7.72;3.13;;;15.40;86.00;;;;;;5068018;28;20028;-70
2022/08/22 08:30:10;;;;;;;7.35;3.25;;;15.50;85.40;;;;;;5067520;28;20738;-70
2022/08/22 08:32:38;;;;;;;11.10;4.00;;;15.50;85.00;;;;;;5068025;28;20459;-70
2022/08/22 08:35:34;;;;;;;21.98;4.22;;;15.60;84.70;;;;;;5067780;28;20060;-70
2022/08/22 08:38:06;;;;;;;;;;;15.60;84.60;;;;;;5063534;28;20460;-70
2022/08/22 08:40:32;;;;;;;7.15;2.72;;;15.70;84.60;;;;;;5068025;28;19991;-71
2022/08/22 08:43:26;;;;;;;7.93;2.47;;;15.80;85.40;;;;;;5063389;28;20450;-70
2022/08/22 08:46:13;;;;;;;33.60;3.63;;;15.90;84.60;;;;;;5067663;28;20029;-71
2022/08/22 08:49:11;;;;;;;14.15;3.03;;;15.90;84.50;;;;;;5068138;28;20085;-71
2022/08/22 08:52:08;;;;;;;9.98;3.22;;;15.90;84.00;;;;;;5063413;28;20475;-71
2022/08/22 08:54:48;;;;;;;6.38;2.13;;;16.00;83.30;;;;;;5063447;28;20062;-70
2022/08/22 08:57:38;;;;;;;11.20;2.90;;;16.00;82.90;;;;;;5067864;28;20039;-69
2022/08/22 09:00:13;;;;;;;7.70;2.90;;;16.00;82.90;;;;;;5067949;28;20019;-69
2022/08/22 09:03:08;;;;;;;12.00;2.03;;;16.10;83.40;;;;;;5067129;28;20109;-70
2022/08/22 09:05:41;;;;;;;7.20;2.80;;;16.20;83.20;;;;;;5059639;28;20025;-70
2022/08/22 09:08:44;;;;;;;10.15;3.17;;;16.20;82.80;;;;;;5065853;28;20032;-70
2022/08/22 09:11:43;;;;;;;8.60;2.28;;;16.30;82.60;;;;;;5067238;28;20046;-70
2022/08/22 09:14:15;;;;;;;7.70;2.53;;;16.30;82.10;;;;;;5066110;28;20043;-70
2022/08/22 09:17:02;;;;;;;9.10;2.17;;;16.40;82.00;;;;;;5066942;28;20024;-70
2022/08/22 09:19:49;;;;;;;3.97;1.98;;;16.40;81.60;;;;;;5065207;28;20017;-71
2022/08/22 09:23:03;;;;;;;5.78;1.80;;;16.40;81.50;;;;;;5070605;28;20025;-70
2022/08/22 09:25:36;;;;;;;4.15;1.80;;;16.50;81.00;;;;;;5020223;28;20488;-70
2022/08/22 09:28:22;;;;;;;4.72;1.58;;;16.50;80.80;;;;;;5068356;28;20067;-71
2022/08/22 09:31:08;;;;;;;5.93;1.55;;;16.60;81.40;;;;;;5066588;28;20103;-70
2022/08/22 09:33:55;;;;;;;8.70;2.30;;;16.60;81.10;;;;;;5064646;28;20058;-71
2022/08/22 09:36:34;;;;;;;3.90;1.48;;;16.80;81.60;;;;;;5067025;28;20025;-70
2022/08/22 09:39:26;;;;;;;5.50;1.40;;;16.80;80.60;;;;;;5065246;28;20032;-70
2022/08/22 09:42:15;;;;;;;4.82;1.35;;;16.90;80.10;;;;;;5064817;28;20029;-70
2022/08/22 09:45:14;;;;;;;5.65;1.33;;;16.90;79.80;;;;;;5064298;28;20028;-70
2022/08/22 09:48:16;;;;;;;4.25;2.08;;;17.00;79.60;;;;;;5064369;28;20514;-71
2022/08/22 09:50:55;;;;;;;5.18;1.23;;;17.00;79.20;;;;;;5035142;28;20037;-71
2022/08/22 09:53:57;;;;;;;7.85;1.45;;;17.10;78.80;;;;;;5067590;28;20040;-71
2022/08/22 09:56:36;;;;;;;9.25;1.85;;;17.20;78.30;;;;;;5067109;28;20035;-69
2022/08/22 09:59:31;;;;;;;7.55;1.33;;;17.20;78.20;;;;;;5068022;28;20024;-71
2022/08/22 10:02:20;;;;;;;8.30;1.83;;;17.20;77.80;;;;;;5038895;28;20032;-70
2022/08/22 10:05:06;;;;;;;3.92;1.42;;;17.30;77.40;;;;;;5062062;28;20535;-70
2022/08/22 10:07:39;;;;;;;5.78;1.02;;;17.30;77.30;;;;;;5063286;28;20028;-70
2022/08/22 10:10:33;;;;;;;3.50;1.00;;;17.30;77.00;;;;;;5066181;28;20078;-68
2022/08/22 10:13:09;;;;;;;10.63;1.85;;;17.40;76.70;;;;;;5065775;28;20041;-69
2022/08/22 10:15:46;;;;;;;7.20;1.05;;;17.40;76.30;;;;;;5065297;28;20024;-69
2022/08/22 10:18:34;;;;;;;17.45;2.13;;;17.40;75.80;;;;;;5062304;28;20031;-67
2022/08/22 10:21:12;;;;;;;46.25;6.85;;;17.50;75.00;;;;;;5062058;28;20426;-70
2022/08/22 10:23:48;;;;;;;40.95;10.02;;;17.50;75.00;;;;;;5063599;28;20029;-69
2022/08/22 10:26:21;;;;;;;25.95;5.10;;;17.60;75.80;;;;;;5064759;28;20013;-69
2022/08/22 10:29:02;;;;;;;19.30;5.88;;;17.70;75.60;;;;;;5063596;28;20041;-73
2022/08/22 10:31:38;;;;;;;4.82;2.65;;;17.70;74.80;;;;;;5065109;28;20046;-70
2022/08/22 10:34:51;;;;;;;7.13;1.80;;;17.70;73.60;;;;;;5065955;28;20033;-69
2022/08/22 10:38:18;;;;;;;1.40;0.68;;;17.80;73.10;;;;;;5063927;28;20032;-69
2022/08/22 10:40:50;;;;;;;5.78;1.58;;;17.80;73.40;;;;;;5061365;28;20503;-69
2022/08/22 10:43:52;;;;;;;2.92;1.40;;;17.90;73.30;;;;;;5066440;28;20036;-69
2022/08/22 10:46:44;;;;;;;6.80;1.30;;;18.00;73.20;;;;;;5063452;28;20476;-69
2022/08/22 10:49:26;;;;;;;3.83;1.30;;;18.00;73.10;;;;;;5061290;28;20059;-69
2022/08/22 10:52:06;;;;;;;3.92;1.90;;;18.10;72.80;;;;;;5067183;28;20387;-69
2022/08/22 10:54:49;;;;;;;6.25;1.88;;;18.10;72.40;;;;;;5064615;28;20036;-69
2022/08/22 10:57:42;;;;;;;2.17;0.93;;;18.20;72.40;;;;;;5059542;28;20033;-69
2022/08/22 11:00:27;;;;;;;8.77;1.45;;;18.20;71.80;;;;;;5030175;28;20072;-70
2022/08/22 11:03:40;;;;;;;3.05;1.17;;;18.20;71.60;;;;;;5056476;28;20067;-69
2022/08/22 11:06:17;;;;;;;9.05;1.60;;;18.30;71.80;;;;;;5009329;28;20048;-69
2022/08/22 11:09:05;;;;;;;8.38;1.38;;;18.40;71.80;;;;;;5065526;28;20032;-69
2022/08/22 11:11:53;;;;;;;2.17;1.05;;;18.40;71.40;;;;;;5063619;28;20032;-69
2022/08/22 11:14:28;;;;;;;4.35;2.10;;;18.50;70.90;;;;;;5059901;28;20044;-69
2022/08/22 11:16:54;;;;;;;;;;;18.50;70.10;;;;;;5067603;28;20032;-70
2022/08/22 11:19:42;;;;;;;4.05;1.60;;;18.50;69.90;;;;;;5059238;28;20007;-69
2022/08/22 11:22:34;;;;;;;5.47;1.77;;;18.50;69.40;;;;;;5068381;28;20040;-69
2022/08/22 11:25:28;;;;;;;2.05;1.05;;;18.60;69.50;;;;;;5066190;28;20055;-69
2022/08/22 11:28:07;;;;;;;8.18;1.52;;;18.60;69.20;;;;;;5063799;28;20032;-69
2022/08/22 11:31:06;;;;;;;7.10;1.83;;;18.70;69.10;;;;;;5064135;28;20028;-70
2022/08/22 11:33:51;;;;;;;8.05;1.40;;;18.70;68.80;;;;;;5060899;28;20050;-70
2022/08/22 11:36:55;;;;;;;2.08;1.05;;;18.80;68.50;;;;;;5064233;28;20016;-69
2022/08/22 11:39:39;;;;;;;2.33;1.20;;;18.80;67.80;;;;;;5048585;28;20110;-69
2022/08/22 11:42:36;;;;;;;11.27;1.45;;;18.80;68.20;;;;;;5067309;28;20495;-68
2022/08/22 11:45:07;;;;;;;5.28;1.10;;;18.90;68.50;;;;;;5067382;28;20020;-69
2022/08/22 11:47:41;;;;;;;7.43;1.45;;;18.90;67.80;;;;;;5067163;28;20383;-70
2022/08/22 11:50:28;;;;;;;10.80;1.67;;;19.00;67.70;;;;;;5069354;28;20048;-69
2022/08/22 11:53:14;;;;;;;7.13;1.85;;;19.00;67.50;;;;;;5067734;28;20395;-71
2022/08/22 11:56:18;;;;;;;6.05;1.45;;;19.00;67.20;;;;;;5067225;28;20024;-70
2022/08/22 11:59:25;;;;;;;6.15;1.50;;;19.10;67.30;;;;;;5068462;28;20032;-70
2022/08/22 12:02:37;;;;;;;2.90;1.02;;;19.20;67.40;;;;;;5062861;28;20032;-71
2022/08/22 12:05:43;;;;;;;4.65;1.23;;;19.20;66.90;;;;;;5065296;28;20087;-71
2022/08/22 12:08:28;;;;;;;10.32;2.15;;;19.30;66.80;;;;;;5067488;28;20035;-71
2022/08/22 12:11:23;;;;;;;6.57;1.48;;;19.20;66.90;;;;;;5065712;28;20033;-70
2022/08/22 12:14:35;;;;;;;9.88;2.90;;;19.30;66.70;;;;;;5063601;28;20106;-71
2022/08/22 12:17:44;;;;;;;9.60;1.70;;;19.40;66.70;;;;;;5069771;28;20503;-70
2022/08/22 12:20:55;;;;;;;7.80;1.38;;;19.40;66.30;;;;;;5063789;28;20040;-71
2022/08/22 12:23:46;;;;;;;4.65;1.58;;;19.40;66.30;;;;;;5028330;28;20045;-71
2022/08/22 12:26:41;;;;;;;2.38;1.02;;;19.50;66.30;;;;;;5029693;28;20021;-71
2022/08/22 12:30:03;;;;;;;6.85;1.67;;;19.50;66.00;;;;;;5025672;28;20481;-71
2022/08/22 12:33:09;;;;;;;4.72;1.67;;;19.50;65.90;;;;;;5022845;28;20036;-70
2022/08/22 12:36:16;;;;;;;3.83;1.20;;;19.60;65.60;;;;;;5025714;28;20033;-71
2022/08/22 12:39:28;;;;;;;4.82;1.00;;;19.60;65.50;;;;;;5025888;28;20488;-71
2022/08/22 12:42:26;;;;;;;9.32;1.92;;;19.60;65.10;;;;;;5023712;28;20109;-71
2022/08/22 12:45:18;;;;;;;6.13;1.45;;;19.60;65.00;;;;;;5025875;28;20062;-71
2022/08/22 12:47:57;;;;;;;6.40;1.50;;;19.70;65.30;;;;;;5022231;28;20030;-70
2022/08/22 12:50:58;;;;;;;7.82;1.48;;;19.70;65.50;;;;;;5021020;28;20630;-71
2022/08/22 12:53:40;;;;;;;7.53;1.73;;;19.70;65.70;;;;;;5023221;28;20044;-71
2022/08/22 12:56:09;;;;;;;3.70;2.38;;;19.70;65.70;;;;;;5026855;28;20021;-71
2022/08/22 12:59:06;;;;;;;3.88;1.10;;;19.70;65.90;;;;;;5024143;28;20018;-71
2022/08/22 13:02:15;;;;;;;5.90;2.35;;;19.70;65.80;;;;;;5025882;28;20044;-71
2022/08/22 13:05:30;;;;;;;4.32;1.80;;;19.70;65.80;;;;;;5025123;28;20040;-71
2022/08/22 13:08:39;;;;;;;7.05;1.55;;;19.70;65.80;;;;;;5024213;28;20044;-71
2022/08/22 13:11:45;;;;;;;7.32;2.30;;;19.70;65.70;;;;;;5026052;28;20026;-71
2022/08/22 13:14:51;;;;;;;4.75;1.27;;;19.70;65.40;;;;;;5025225;28;20097;-71
2022/08/22 13:17:57;;;;;;;7.97;1.73;;;19.70;65.20;;;;;;5023959;28;20029;-70
2022/08/22 13:21:03;;;;;;;9.80;1.70;;;19.70;65.20;;;;;;5021419;28;20017;-71
2022/08/22 13:24:09;;;;;;;3.28;1.55;;;19.70;65.20;;;;;;5065052;28;20043;-71
2022/08/22 13:27:16;;;;;;;11.95;2.35;;;19.70;65.40;;;;;;5063399;28;20025;-70
2022/08/22 13:30:25;;;;;;;8.15;1.80;;;19.80;65.80;;;;;;5062365;28;20036;-71
2022/08/22 13:33:46;;;;;;;8.82;2.05;;;19.80;65.70;;;;;;5062837;28;20028;-71
2022/08/22 13:36:58;;;;;;;6.40;2.22;;;19.70;65.50;;;;;;5046743;28;20067;-71
2022/08/22 13:40:04;;;;;;;11.05;2.30;;;19.80;65.70;;;;;;5059858;28;20024;-71
2022/08/22 13:42:50;;;;;;;;;;;19.70;65.10;;;;;;5064579;28;20051;-70
2022/08/22 13:45:56;;;;;;;12.70;2.20;;;19.70;65.20;;;;;;5065017;28;20049;-71
2022/08/22 13:49:05;;;;;;;6.00;1.48;;;19.70;65.20;;;;;;5064588;28;20217;-71
2022/08/22 13:51:38;;;;;;;5.40;1.85;;;19.70;65.00;;;;;;5066604;28;20019;-71
2022/08/22 13:54:11;;;;;;;6.82;2.08;;;19.70;65.10;;;;;;5066086;28;20040;-71
2022/08/22 13:57:20;;;;;;;14.15;2.50;;;19.70;64.90;;;;;;5064107;28;20372;-70
2022/08/22 14:00:30;;;;;;;17.17;2.38;;;19.70;64.90;;;;;;5051536;28;20373;-71
2022/08/22 14:03:25;;;;;;;13.23;2.17;;;19.70;65.40;;;;;;5066500;28;20017;-71
2022/08/22 14:05:58;;;;;;;9.85;2.60;;;19.70;65.30;;;;;;5039430;28;20063;-71
2022/08/22 14:08:32;;;;;;;6.28;1.95;;;19.70;66.20;;;;;;5065983;28;20472;-72
2022/08/22 14:11:19;;;;;;;11.07;3.22;;;19.70;65.50;;;;;;5063329;28;20027;-71
2022/08/22 14:13:54;;;;;;;12.65;5.88;;;19.70;65.40;;;;;;5064802;28;20047;-74
2022/08/22 14:16:24;;;;;;;14.63;3.65;;;19.70;66.00;;;;;;5062500;28;20032;-72
2022/08/22 14:19:04;;;;;;;10.50;2.72;;;19.70;66.70;;;;;;5078763;28;20033;-72
2022/08/22 14:21:36;;;;;;;8.13;2.45;;;19.70;66.70;;;;;;5057323;28;20053;-72
2022/08/22 14:24:23;;;;;;;8.75;2.35;;;19.70;66.20;;;;;;5064454;28;20059;-75
2022/08/22 14:26:57;;;;;;;11.27;2.70;;;19.70;65.90;;;;;;5062986;28;20017;-76